createdAt,value
2023-10-06T00:01:44.057Z,12.80
2023-10-06T00:04:16.265Z,12.80
2023-10-06T00:06:44.254Z,12.80
2023-10-06T00:09:20.683Z,12.80
2023-10-06T00:11:47.621Z,12.80
2023-10-06T00:14:39.893Z,12.70
2023-10-06T00:17:16.836Z,12.70
2023-10-06T00:19:44.817Z,12.70
2023-10-06T00:22:18.672Z,12.60
2023-10-06T00:24:48.655Z,12.60
2023-10-06T00:27:15.677Z,12.50
2023-10-06T00:29:50.062Z,12.50
2023-10-06T00:32:22.747Z,12.40
2023-10-06T00:34:51.008Z,12.40
2023-10-06T00:37:23.345Z,12.40
2023-10-06T00:39:51.793Z,12.40
2023-10-06T00:42:43.530Z,12.40
2023-10-06T00:45:10.590Z,12.40
2023-10-06T00:47:40.281Z,12.40
2023-10-06T00:50:11.361Z,12.40
2023-10-06T00:52:40.347Z,12.40
2023-10-06T00:55:15.417Z,12.30
2023-10-06T00:57:42.191Z,12.30
2023-10-06T01:00:20.808Z,12.20
2023-10-06T01:02:48.674Z,12.20
2023-10-06T01:05:17.638Z,12.20
2023-10-06T01:07:47.899Z,12.20
2023-10-06T01:10:18.961Z,12.10
2023-10-06T01:12:53.157Z,12.10
2023-10-06T01:15:21.411Z,12.00
2023-10-06T01:17:49.693Z,12.00
2023-10-06T01:20:37.814Z,11.90
2023-10-06T01:23:11.465Z,12.00
2023-10-06T01:25:38.373Z,11.90
2023-10-06T01:28:05.364Z,11.90
2023-10-06T01:30:32.038Z,11.90
2023-10-06T01:32:59.643Z,11.90
2023-10-06T01:35:27.802Z,11.80
2023-10-06T01:38:01.362Z,11.90
2023-10-06T01:40:29.318Z,11.80
2023-10-06T01:42:56.722Z,11.90
2023-10-06T01:45:27.197Z,11.80
2023-10-06T01:47:56.812Z,11.80
2023-10-06T01:50:29.594Z,11.80
2023-10-06T01:53:07.213Z,11.70
2023-10-06T01:55:40.252Z,11.70
2023-10-06T01:58:12.155Z,11.80
2023-10-06T02:00:39.082Z,11.80
2023-10-06T02:06:03.511Z,11.80
2023-10-06T02:08:31.653Z,11.80
2023-10-06T02:10:59.222Z,11.80
2023-10-06T02:13:27.098Z,11.80
2023-10-06T02:15:59.629Z,11.70
2023-10-06T02:18:39.128Z,11.70
2023-10-06T02:21:12.363Z,11.70
2023-10-06T02:23:41.148Z,11.70
2023-10-06T02:26:10.408Z,11.70
2023-10-06T02:28:50.605Z,11.70
2023-10-06T02:31:23.344Z,11.70
2023-10-06T02:33:50.568Z,11.70
2023-10-06T02:36:23.616Z,11.80
2023-10-06T02:38:53.374Z,11.80
2023-10-06T02:41:22.590Z,11.80
2023-10-06T02:43:53.913Z,11.70
2023-10-06T02:46:22.285Z,11.70
2023-10-06T02:48:52.340Z,11.70
2023-10-06T02:51:50.137Z,11.60
2023-10-06T02:54:17.078Z,11.60
2023-10-06T02:56:46.236Z,11.60
2023-10-06T02:59:22.740Z,11.50
2023-10-06T03:01:55.175Z,11.50
2023-10-06T03:04:26.632Z,11.40
2023-10-06T03:06:58.772Z,11.40
2023-10-06T03:09:29.140Z,11.40
2023-10-06T03:11:59.791Z,11.50
2023-10-06T03:14:38.657Z,11.40
2023-10-06T03:17:12.408Z,11.40
2023-10-06T03:19:42.688Z,11.40
2023-10-06T03:22:14.123Z,11.40
2023-10-06T03:24:59.297Z,11.40
2023-10-06T03:27:28.292Z,11.30
2023-10-06T03:29:56.053Z,11.30
2023-10-06T03:32:33.782Z,11.40
2023-10-06T03:35:12.949Z,11.40
2023-10-06T03:37:52.586Z,11.40
2023-10-06T03:40:24.750Z,11.40
2023-10-06T03:42:53.779Z,11.30
2023-10-06T03:45:32.470Z,11.30
2023-10-06T03:48:12.724Z,11.30
2023-10-06T03:50:44.940Z,11.30
2023-10-06T03:53:14.303Z,11.30
2023-10-06T03:55:45.949Z,11.40
2023-10-06T03:58:18.303Z,11.30
2023-10-06T04:00:48.863Z,11.40
2023-10-06T04:03:18.448Z,11.30
2023-10-06T04:05:46.013Z,11.30
2023-10-06T04:08:15.191Z,11.30
2023-10-06T04:10:46.136Z,11.30
2023-10-06T04:13:13.339Z,11.20
2023-10-06T04:15:44.726Z,11.20
2023-10-06T04:18:11.889Z,11.20
2023-10-06T04:20:42.252Z,11.10
2023-10-06T04:23:09.426Z,11.20
2023-10-06T04:25:39.386Z,11.20
2023-10-06T04:28:10.639Z,11.30
2023-10-06T04:30:38.474Z,11.20
2023-10-06T04:33:06.494Z,11.20
2023-10-06T04:35:34.198Z,11.20
2023-10-06T04:38:07.056Z,11.20
2023-10-06T04:40:34.004Z,11.10
2023-10-06T04:43:00.791Z,11.20
2023-10-06T04:49:39.673Z,11.20
2023-10-06T04:52:06.648Z,11.10
2023-10-06T04:54:33.315Z,11.20
2023-10-06T04:57:00.049Z,11.10
2023-10-06T04:59:26.749Z,11.10
2023-10-06T05:01:54.252Z,11.20
2023-10-06T05:04:21.040Z,11.20
2023-10-06T05:06:47.669Z,11.10
2023-10-06T05:09:19.011Z,11.10
2023-10-06T05:11:47.179Z,11.20
2023-10-06T05:14:13.837Z,11.20
2023-10-06T05:16:41.988Z,11.10
2023-10-06T05:19:09.034Z,11.20
2023-10-06T05:21:37.693Z,11.10
2023-10-06T05:24:04.922Z,11.20
2023-10-06T05:26:31.808Z,11.20
2023-10-06T05:28:58.540Z,11.20
2023-10-06T05:31:25.204Z,11.20
2023-10-06T05:33:52.618Z,11.20
2023-10-06T05:36:21.360Z,11.30
2023-10-06T05:38:48.396Z,11.40
2023-10-06T05:41:16.274Z,11.50
2023-10-06T05:43:44.431Z,11.60
2023-10-06T05:46:12.514Z,11.70
2023-10-06T05:48:39.667Z,11.80
2023-10-06T05:51:10.017Z,11.80
2023-10-06T05:53:40.488Z,11.70
2023-10-06T05:56:08.733Z,11.70
2023-10-06T05:58:38.255Z,11.60
2023-10-06T06:01:11.651Z,11.60
2023-10-06T06:03:46.619Z,11.60
2023-10-06T06:06:22.927Z,11.60
2023-10-06T06:08:50.260Z,11.60
2023-10-06T06:11:17.805Z,11.70
2023-10-06T06:13:45.398Z,11.80
2023-10-06T06:16:16.427Z,11.80
2023-10-06T06:18:44.253Z,11.90
2023-10-06T06:21:13.478Z,11.90
2023-10-06T06:23:40.262Z,11.90
2023-10-06T06:26:06.969Z,11.90
2023-10-06T06:28:33.702Z,11.90
2023-10-06T06:31:05.905Z,11.90
2023-10-06T06:33:33.838Z,11.90
2023-10-06T06:36:01.682Z,11.90
2023-10-06T06:38:29.183Z,11.90
2023-10-06T06:40:59.994Z,11.90
2023-10-06T06:43:26.798Z,11.90
2023-10-06T06:45:54.693Z,11.90
2023-10-06T06:48:21.874Z,12.00
2023-10-06T06:50:49.747Z,12.00
2023-10-06T06:53:19.915Z,12.00
2023-10-06T06:55:47.230Z,12.10
2023-10-06T06:58:17.621Z,12.10
2023-10-06T07:00:45.043Z,12.20
2023-10-06T07:03:15.884Z,12.30
2023-10-06T07:05:44.027Z,12.40
2023-10-06T07:08:12.710Z,12.50
2023-10-06T07:10:44.670Z,12.50
2023-10-06T07:13:11.871Z,12.60
2023-10-06T07:15:38.565Z,12.60
2023-10-06T07:18:06.125Z,12.70
2023-10-06T07:20:33.852Z,12.70
2023-10-06T07:23:04.813Z,12.70
2023-10-06T07:25:32.374Z,12.80
2023-10-06T07:28:00.237Z,12.80
2023-10-06T07:30:35.347Z,12.90
2023-10-06T07:33:04.294Z,13.00
2023-10-06T07:35:32.664Z,13.10
2023-10-06T07:37:59.912Z,13.20
2023-10-06T07:40:29.020Z,13.30
2023-10-06T07:42:56.578Z,13.40
2023-10-06T07:45:25.178Z,13.50
2023-10-06T07:47:52.290Z,13.50
2023-10-06T07:50:19.514Z,13.60
2023-10-06T07:52:48.138Z,13.60
2023-10-06T07:55:15.177Z,13.70
2023-10-06T07:57:42.875Z,13.70
2023-10-06T08:00:11.948Z,13.80
2023-10-06T08:02:41.304Z,13.90
2023-10-06T08:05:14.737Z,14.00
2023-10-06T08:07:43.793Z,14.10
2023-10-06T08:10:14.995Z,14.30
2023-10-06T08:12:46.763Z,14.50
2023-10-06T08:15:18.397Z,14.50
2023-10-06T08:17:54.107Z,14.70
2023-10-06T08:20:21.787Z,14.70
2023-10-06T08:22:50.234Z,14.80
2023-10-06T08:25:18.453Z,14.80
2023-10-06T08:27:46.635Z,14.90
2023-10-06T08:30:41.871Z,15.00
2023-10-06T08:33:10.814Z,15.10
2023-10-06T08:35:37.935Z,15.30
2023-10-06T08:38:04.716Z,15.40
2023-10-06T08:40:34.010Z,15.40
2023-10-06T08:43:01.080Z,15.50
2023-10-06T08:45:29.457Z,15.40
2023-10-06T08:48:02.755Z,15.40
2023-10-06T08:50:33.531Z,15.40
2023-10-06T08:53:03.075Z,15.50
2023-10-06T08:55:30.371Z,15.50
2023-10-06T08:58:04.540Z,15.40
2023-10-06T09:00:36.189Z,15.40
2023-10-06T09:03:10.684Z,15.40
2023-10-06T09:05:42.798Z,15.50
2023-10-06T09:08:11.499Z,15.40
2023-10-06T09:10:52.023Z,15.50
2023-10-06T09:13:20.782Z,15.50
2023-10-06T09:16:00.705Z,15.70
2023-10-06T09:18:35.311Z,15.80
2023-10-06T09:21:13.246Z,15.80
2023-10-06T09:23:42.738Z,15.80
2023-10-06T09:26:14.576Z,15.90
2023-10-06T09:28:53.456Z,16.00
2023-10-06T09:31:36.390Z,16.20
2023-10-06T09:34:08.715Z,16.40
2023-10-06T09:36:44.254Z,16.50
2023-10-06T09:39:16.435Z,16.70
2023-10-06T09:41:43.505Z,16.70
2023-10-06T09:44:13.428Z,16.90
2023-10-06T09:46:44.662Z,17.10
2023-10-06T09:49:17.396Z,17.30
2023-10-06T09:51:46.602Z,17.30
2023-10-06T09:54:13.917Z,17.50
2023-10-06T09:56:43.783Z,17.70
2023-10-06T09:59:13.513Z,17.80
2023-10-06T10:01:43.439Z,18.00
2023-10-06T10:04:14.043Z,17.90
2023-10-06T10:06:45.338Z,17.70
2023-10-06T10:09:17.753Z,17.60
2023-10-06T10:12:01.303Z,18.00
2023-10-06T10:14:41.342Z,18.40
2023-10-06T10:17:22.931Z,18.70
2023-10-06T10:19:52.362Z,18.60
2023-10-06T10:22:22.279Z,18.70
2023-10-06T10:27:20.210Z,18.10
2023-10-06T10:29:48.377Z,18.20
2023-10-06T10:32:17.471Z,18.10
2023-10-06T10:35:08.654Z,17.60
2023-10-06T10:37:57.942Z,17.50
2023-10-06T10:40:44.914Z,17.50
2023-10-06T10:43:15.376Z,17.70
2023-10-06T10:45:45.881Z,17.60
2023-10-06T10:48:16.834Z,17.50
2023-10-06T10:51:13.276Z,17.50
2023-10-06T10:53:48.986Z,17.90
2023-10-06T10:56:35.240Z,18.20
2023-10-06T10:59:03.646Z,18.80
2023-10-06T11:01:34.310Z,19.10
2023-10-06T11:04:19.462Z,18.90
2023-10-06T11:06:49.197Z,18.70
2023-10-06T11:09:26.415Z,18.20
2023-10-06T11:12:24.885Z,17.70
2023-10-06T11:14:53.957Z,17.70
2023-10-06T11:17:27.228Z,17.90
2023-10-06T11:20:33.798Z,18.50
2023-10-06T11:23:02.029Z,18.70
2023-10-06T11:25:30.004Z,18.70
2023-10-06T11:28:03.681Z,18.60
2023-10-06T11:30:32.688Z,18.60
2023-10-06T11:33:01.444Z,18.50
2023-10-06T11:35:28.340Z,18.90
2023-10-06T11:37:56.277Z,19.10
2023-10-06T11:40:25.560Z,19.00
2023-10-06T11:42:53.082Z,18.90
2023-10-06T11:45:28.864Z,19.00
2023-10-06T11:47:56.506Z,19.20
2023-10-06T11:50:28.062Z,19.30
2023-10-06T11:52:56.315Z,19.10
2023-10-06T11:55:36.915Z,18.90
2023-10-06T11:58:06.201Z,19.20
2023-10-06T12:00:39.048Z,19.50
2023-10-06T12:03:07.940Z,19.40
2023-10-06T12:05:35.443Z,19.10
2023-10-06T12:08:06.545Z,18.90
2023-10-06T12:10:36.326Z,18.80
2023-10-06T12:13:06.343Z,19.00
2023-10-06T12:15:33.170Z,19.10
2023-10-06T12:18:01.168Z,18.90
2023-10-06T12:20:28.621Z,18.60
2023-10-06T12:22:55.893Z,18.70
2023-10-06T12:25:26.397Z,19.00
2023-10-06T12:27:53.330Z,19.20
2023-10-06T12:30:20.502Z,19.40
2023-10-06T12:32:47.191Z,19.50
2023-10-06T12:35:19.449Z,19.80
2023-10-06T12:37:47.855Z,20.20
2023-10-06T12:40:16.551Z,20.30
2023-10-06T12:42:44.491Z,20.40
2023-10-06T12:45:24.469Z,20.30
2023-10-06T12:47:52.071Z,19.90
2023-10-06T12:50:20.575Z,20.10
2023-10-06T12:52:56.045Z,20.40
2023-10-06T12:55:25.673Z,20.40
2023-10-06T12:58:17.827Z,20.20
2023-10-06T13:00:44.710Z,20.10
2023-10-06T13:03:17.198Z,20.30
2023-10-06T13:05:45.098Z,20.20
2023-10-06T13:08:17.702Z,20.10
2023-10-06T13:10:44.891Z,19.90
2023-10-06T13:13:13.435Z,19.70
2023-10-06T13:15:41.509Z,19.50
2023-10-06T13:18:09.576Z,19.30
2023-10-06T13:20:37.000Z,19.30
2023-10-06T13:23:06.525Z,19.20
2023-10-06T13:25:33.432Z,19.00
2023-10-06T13:28:00.151Z,18.90
2023-10-06T13:30:26.846Z,18.70
2023-10-06T13:32:58.473Z,18.60
2023-10-06T13:35:25.642Z,18.50
2023-10-06T13:37:52.354Z,18.30
2023-10-06T13:40:19.286Z,18.30
2023-10-06T13:42:51.251Z,18.40
2023-10-06T13:45:20.894Z,18.30
2023-10-06T13:47:57.175Z,18.40
2023-10-06T13:50:28.485Z,18.30
2023-10-06T13:52:56.373Z,18.30
2023-10-06T13:55:25.462Z,18.20
2023-10-06T13:57:53.874Z,18.20
2023-10-06T14:00:41.440Z,18.20
2023-10-06T14:03:30.366Z,18.20
2023-10-06T14:05:58.976Z,18.30
2023-10-06T14:08:28.621Z,18.20
2023-10-06T14:10:57.627Z,18.10
2023-10-06T14:13:26.047Z,18.00
2023-10-06T14:15:57.578Z,18.00
2023-10-06T14:18:31.210Z,17.90
2023-10-06T14:21:03.810Z,17.90
2023-10-06T14:23:35.411Z,17.90
2023-10-06T14:26:07.864Z,18.10
2023-10-06T14:28:34.618Z,18.30
2023-10-06T14:31:17.677Z,18.60
2023-10-06T14:33:49.082Z,18.60
2023-10-06T14:36:15.897Z,18.60
2023-10-06T14:38:45.370Z,18.50
2023-10-06T14:41:19.926Z,18.50
2023-10-06T14:44:16.024Z,18.50
2023-10-06T14:46:50.607Z,18.50
2023-10-06T14:49:26.409Z,18.40
2023-10-06T14:51:58.243Z,18.40
2023-10-06T14:54:31.526Z,18.70
2023-10-06T14:57:02.830Z,18.80
2023-10-06T14:59:32.847Z,19.00
2023-10-06T15:02:11.115Z,19.00
2023-10-06T15:04:40.310Z,18.70
2023-10-06T15:07:07.320Z,18.40
2023-10-06T15:12:22.215Z,18.10
2023-10-06T15:14:49.253Z,18.00
2023-10-06T15:17:17.497Z,17.90
2023-10-06T15:19:47.358Z,17.90
2023-10-06T15:22:14.187Z,18.10
2023-10-06T15:24:41.124Z,18.30
2023-10-06T15:27:08.560Z,18.40
2023-10-06T15:29:36.017Z,18.40
2023-10-06T15:32:05.906Z,18.30
2023-10-06T15:34:35.645Z,18.10
2023-10-06T15:37:02.997Z,18.00
2023-10-06T15:39:32.981Z,17.90
2023-10-06T15:41:59.859Z,17.70
2023-10-06T15:44:28.515Z,17.70
2023-10-06T15:46:57.762Z,17.60
2023-10-06T15:49:24.673Z,17.50
2023-10-06T15:51:51.526Z,17.50
2023-10-06T15:54:18.199Z,17.50
2023-10-06T15:56:45.429Z,17.50
2023-10-06T15:59:16.522Z,17.40
2023-10-06T16:01:45.249Z,17.50
2023-10-06T16:04:14.744Z,17.50
2023-10-06T16:06:42.680Z,17.50
2023-10-06T16:09:10.817Z,17.50
2023-10-06T16:11:40.945Z,17.50
2023-10-06T16:14:07.922Z,17.50
2023-10-06T16:16:37.538Z,17.50
2023-10-06T16:19:05.076Z,17.40
2023-10-06T16:21:35.731Z,17.40
2023-10-06T16:24:06.899Z,17.40
2023-10-06T16:26:34.046Z,17.40
2023-10-06T16:29:01.614Z,17.40
2023-10-06T16:31:28.998Z,17.40
2023-10-06T16:33:56.295Z,17.40
2023-10-06T16:36:23.707Z,17.40
2023-10-06T16:38:51.839Z,17.40
2023-10-06T16:41:23.068Z,17.40
2023-10-06T16:43:59.513Z,17.30
2023-10-06T16:46:28.871Z,17.30
2023-10-06T16:48:55.580Z,17.30
2023-10-06T16:51:24.387Z,17.30
2023-10-06T16:53:51.003Z,17.30
2023-10-06T16:56:19.900Z,17.20
2023-10-06T16:58:47.106Z,17.10
2023-10-06T17:01:13.810Z,17.10
2023-10-06T17:03:40.979Z,17.00
2023-10-06T17:06:11.370Z,17.00
2023-10-06T17:08:38.651Z,17.00
2023-10-06T17:11:15.803Z,17.00
2023-10-06T17:13:43.137Z,17.00
2023-10-06T17:16:14.158Z,16.90
2023-10-06T17:18:42.655Z,16.90
2023-10-06T17:21:14.546Z,16.90
2023-10-06T17:23:43.653Z,16.90
2023-10-06T17:26:10.491Z,16.80
2023-10-06T17:28:37.382Z,16.80
2023-10-06T17:31:04.325Z,16.80
2023-10-06T17:33:31.426Z,16.80
2023-10-06T17:35:58.487Z,16.80
2023-10-06T17:38:25.277Z,16.80
2023-10-06T17:40:56.609Z,16.80
2023-10-06T17:43:24.539Z,16.80
2023-10-06T17:45:52.252Z,16.80
2023-10-06T17:48:19.455Z,16.70
2023-10-06T17:50:48.437Z,16.80
2023-10-06T17:53:16.634Z,16.80
2023-10-06T17:55:52.238Z,16.80
2023-10-06T17:58:18.972Z,16.80
2023-10-06T18:00:45.869Z,16.80
2023-10-06T18:03:12.740Z,16.80
2023-10-06T18:05:44.087Z,16.80
2023-10-06T18:08:10.763Z,16.80
2023-10-06T18:10:37.542Z,16.90
2023-10-06T18:13:04.436Z,16.80
2023-10-06T18:15:33.310Z,16.80
2023-10-06T18:18:00.362Z,16.80
2023-10-06T18:20:27.239Z,16.80
2023-10-06T18:22:54.642Z,16.70
2023-10-06T18:25:21.480Z,16.70
2023-10-06T18:27:48.186Z,16.60
2023-10-06T18:30:16.797Z,16.70
2023-10-06T18:32:43.430Z,16.60
2023-10-06T18:35:10.191Z,16.60
2023-10-06T18:37:38.260Z,16.50
2023-10-06T18:40:06.977Z,16.50
2023-10-06T18:42:33.926Z,16.50
2023-10-06T18:45:00.671Z,16.50
2023-10-06T18:47:28.643Z,16.60
2023-10-06T18:49:55.440Z,16.50
2023-10-06T18:52:22.874Z,16.60
2023-10-06T18:54:49.649Z,16.50
2023-10-06T18:57:16.334Z,16.50
2023-10-06T18:59:45.210Z,16.50
2023-10-06T19:02:12.808Z,16.60
2023-10-06T19:04:40.832Z,16.60
2023-10-06T19:07:08.333Z,16.60
2023-10-06T19:09:34.978Z,16.60
2023-10-06T19:12:05.025Z,16.60
2023-10-06T19:14:32.203Z,16.50
2023-10-06T19:16:59.000Z,16.60
2023-10-06T19:19:28.787Z,16.50
2023-10-06T19:21:55.644Z,16.60
2023-10-06T19:24:22.285Z,16.50
2023-10-06T19:26:51.803Z,16.60
2023-10-06T19:29:20.510Z,16.60
2023-10-06T19:31:48.572Z,16.50
2023-10-06T19:34:16.729Z,16.50
2023-10-06T19:36:45.388Z,16.40
2023-10-06T19:39:15.541Z,16.40
2023-10-06T19:41:44.695Z,16.50
2023-10-06T19:44:11.475Z,16.30
2023-10-06T19:46:40.161Z,16.40
2023-10-06T19:49:06.970Z,16.30
2023-10-06T19:51:33.675Z,16.20
2023-10-06T19:54:00.348Z,16.20
2023-10-06T19:56:27.154Z,16.20
2023-10-06T19:58:55.100Z,16.30
2023-10-06T20:01:25.045Z,16.20
2023-10-06T20:03:52.452Z,16.10
2023-10-06T20:06:20.529Z,16.20
2023-10-06T20:08:47.947Z,16.10
2023-10-06T20:11:16.099Z,16.20
2023-10-06T20:13:42.795Z,16.10
2023-10-06T20:16:14.193Z,16.00
2023-10-06T20:18:43.319Z,16.00
2023-10-06T20:21:12.792Z,16.00
2023-10-06T20:23:40.403Z,16.00
2023-10-06T20:26:10.560Z,16.00
2023-10-06T20:28:37.383Z,15.90
2023-10-06T20:31:05.173Z,15.90
2023-10-06T20:33:32.349Z,15.90
2023-10-06T20:35:59.128Z,15.80
2023-10-06T20:38:25.833Z,15.70
2023-10-06T20:40:54.487Z,15.80
2023-10-06T20:43:21.293Z,15.80
2023-10-06T20:45:48.227Z,15.80
2023-10-06T20:48:15.063Z,15.80
2023-10-06T20:50:42.986Z,15.80
2023-10-06T20:53:10.642Z,15.70
2023-10-06T20:55:37.420Z,15.70
2023-10-06T20:58:04.361Z,15.70
2023-10-06T21:00:31.246Z,15.70
2023-10-06T21:02:58.758Z,15.70
2023-10-06T21:05:26.167Z,15.70
2023-10-06T21:07:53.270Z,15.60
2023-10-06T21:10:20.226Z,15.70
2023-10-06T21:12:46.986Z,15.70
2023-10-06T21:15:17.494Z,15.80
2023-10-06T21:17:44.346Z,15.70
2023-10-06T21:20:13.224Z,15.80
2023-10-06T21:22:41.270Z,15.80
2023-10-06T21:25:15.990Z,15.70
2023-10-06T21:27:42.970Z,15.70
2023-10-06T21:30:10.155Z,15.60
2023-10-06T21:32:37.540Z,15.60
2023-10-06T21:35:08.121Z,15.50
2023-10-06T21:37:35.349Z,15.60
2023-10-06T21:40:02.546Z,15.60
2023-10-06T21:42:29.848Z,15.60
2023-10-06T21:44:56.777Z,15.60
2023-10-06T21:47:23.772Z,15.60
2023-10-06T21:49:50.705Z,15.60
2023-10-06T21:52:17.484Z,15.60
2023-10-06T21:54:44.249Z,15.50
2023-10-06T21:57:14.031Z,15.50
2023-10-06T21:59:42.419Z,15.50
2023-10-06T22:02:09.965Z,15.50
2023-10-06T22:04:37.395Z,15.40
2023-10-06T22:07:04.471Z,15.40
2023-10-06T22:09:31.210Z,15.40
2023-10-06T22:11:59.743Z,15.50
2023-10-06T22:14:28.864Z,15.40
2023-10-06T22:16:56.252Z,15.30
2023-10-06T22:19:23.171Z,15.30
2023-10-06T22:21:51.730Z,15.30
2023-10-06T22:24:18.468Z,15.40
2023-10-06T22:26:45.943Z,15.40
2023-10-06T22:29:13.138Z,15.30
2023-10-06T22:31:40.459Z,15.30
2023-10-06T22:34:07.370Z,15.20
2023-10-06T22:36:34.127Z,15.30
2023-10-06T22:39:00.923Z,15.20
2023-10-06T22:41:28.023Z,15.20
2023-10-06T22:43:54.715Z,15.10
2023-10-06T22:46:21.948Z,15.10
2023-10-06T22:48:48.723Z,15.00
2023-10-06T22:51:15.479Z,15.00
2023-10-06T22:53:42.269Z,15.00
2023-10-06T22:56:09.702Z,15.00
2023-10-06T22:58:37.742Z,15.00
2023-10-06T23:01:05.216Z,15.00
2023-10-06T23:03:32.380Z,15.10
2023-10-06T23:06:00.673Z,15.00
2023-10-06T23:08:28.816Z,15.00
2023-10-06T23:10:55.944Z,14.90
2023-10-06T23:13:22.936Z,14.90
2023-10-06T23:15:49.773Z,14.90
2023-10-06T23:18:18.280Z,14.90
2023-10-06T23:20:47.173Z,14.90
2023-10-06T23:23:13.841Z,14.90
2023-10-06T23:25:56.184Z,14.90
2023-10-06T23:28:24.228Z,14.90
2023-10-06T23:30:50.895Z,14.90
2023-10-06T23:33:17.605Z,15.00
2023-10-06T23:35:44.284Z,15.00
2023-10-06T23:38:13.027Z,15.10
2023-10-06T23:41:12.777Z,15.00
2023-10-06T23:43:39.894Z,15.10
2023-10-06T23:46:11.475Z,15.00
2023-10-06T23:48:38.480Z,15.00
2023-10-06T23:51:10.352Z,15.00
2023-10-06T23:53:37.879Z,15.00
2023-10-06T23:56:20.352Z,14.90
2023-10-06T23:58:47.218Z,14.90
